Union, New Hampshire
Current Conditions -  °F | °C
As of 1:51 PM on Saturday 20 Dec 2014 (Local Time) from KDAW Reporting Station
Scattered Clouds Scattered Clouds  
Wind Chill: 29°   Ceiling: Unl
Heat Index: 33°   Visibility: 10mi
Dew Point: 21°   Wind: 5mph
Humidity: 61%   Direction: 30°NNE
Pressure: 30.27"   Gusts: NA
Location:  43.49°N, 71.02°W
Report Text: KDAW 201851Z AUTO 03004KT 10SM SCT024 01/M06 A3027 RMK AO2 SLP252 T00061061
Loading
Personal Weather Stations






























Interactive Weather Map New forecast layout! Learn more

10-Day Weather Forecast

Advertisements
Track Severe Weather on mobile